الصفحة الرئيسية
METAR-TAF:

METAR-TAF

مطار :

Gove Peninsula, أستراليا

دائرة عرض: 12-16-12S, خط طول: 136-49-06E, ارتفاع: 62 متر

مراقبة الطقس الحالي

تاريخ ووقت الإصدار 23 دقيقة قبل الساعة 08:00UTC
ريح 16 عقدة من الجنوب/الجنوب الشرقي
درجة الحرارة 29°درجة مئوية
الرطوبة 66%
ضغط 1009 hPa
الرؤية 10 كم أو أكثر
غيوم متفرقة على ارتفاع 3800 قدم
غيوم متفرقة على ارتفاع 5200 قدم
غيوم متفرقة على ارتفاع 6400 قدم

METAR: YPGV 170800Z AUTO 15016KT 9999 // SCT038 SCT052 SCT064 29/22 Q1009

زمن: 17:53 (08:23 UTC)

توقعات

تاريخ ووقت الإصدار 2ساعات و 9 دقيقة قبل الساعة 06:14UTC
التوقعات صالحة من17 الساعة 08 UTC إلى 17 الساعة 20 UTC
ريح 14 عقدة من الجنوب/الجنوب الشرقي
الرؤية 10 كم أو أكثر
غيوم متفرقة على ارتفاع 3000 قدم
من 17 الساعة 1000 UTC
ريح 8 عقدة من الجنوب/الجنوب الشرقي
الرؤية: 5000 متر
غيوم قليلة على ارتفاع 2500 قدم
غيوم متفرقة على ارتفاع 1500 قدم
زخات من المطر

TAF: YPGV 170614Z 1708/1720 15014KT 9999 SCT030 FM171000 16008KT 9999 FEW025 INTER 1708/1709 5000 SHRA SCT015

أرصاد الطقس والتوقعات من أكثر من 4000 مطار (تقارير الطقس للمطار METAR والتنبؤ بالطقس بالمطارTAF).

المحطات المتاحة هي النقط الصفراء والحمراء على الخريطة.

حرك المؤشر فوق النقطة لمعرفة اسم المحطة.

ثم انقر لمعرفة أرصاد وتوقعات الطقس.

لتغيير الخارطة: اضغط على الأزرار الخضراء مع رمز الصليب الأسود للتكبير. على الزر الأخضر مع شرطة للتصغير، أو على الأسهم الخضراء للخرائط المجاورة.


METAR-TAF: